sensor_id;sensor_type;location;lat;lon;timestamp;pressure;altitude;pressure_sealevel;temperature;humidity
1472;BME280;963;42.644;23.336;2023-07-13T00:01:17;94440.00;;;25.63;48.49
1472;BME280;963;42.644;23.336;2023-07-13T00:03:42;94433.13;;;25.62;48.57
1472;BME280;963;42.644;23.336;2023-07-13T00:06:09;94435.34;;;25.64;48.86
1472;BME280;963;42.644;23.336;2023-07-13T00:08:34;94421.13;;;25.54;48.89
1472;BME280;963;42.644;23.336;2023-07-13T00:11:01;94420.22;;;25.48;48.83
1472;BME280;963;42.644;23.336;2023-07-13T00:13:27;94429.97;;;25.54;48.79
1472;BME280;963;42.644;23.336;2023-07-13T00:15:52;94426.22;;;25.52;49.23
1472;BME280;963;42.644;23.336;2023-07-13T00:18:19;94420.53;;;25.50;49.88
1472;BME280;963;42.644;23.336;2023-07-13T00:20:45;94421.44;;;25.56;49.89
1472;BME280;963;42.644;23.336;2023-07-13T00:23:10;94430.41;;;25.53;50.37
1472;BME280;963;42.644;23.336;2023-07-13T00:25:36;94434.28;;;25.52;50.70
1472;BME280;963;42.644;23.336;2023-07-13T00:28:02;94419.91;;;25.46;50.86
1472;BME280;963;42.644;23.336;2023-07-13T00:30:27;94425.44;;;25.42;51.00
1472;BME280;963;42.644;23.336;2023-07-13T00:32:53;94419.91;;;25.46;51.21
1472;BME280;963;42.644;23.336;2023-07-13T00:35:18;94425.00;;;25.44;51.35
1472;BME280;963;42.644;23.336;2023-07-13T00:37:44;94416.63;;;25.42;51.21
1472;BME280;963;42.644;23.336;2023-07-13T00:40:12;94417.28;;;25.15;51.61
1472;BME280;963;42.644;23.336;2023-07-13T00:42:38;94433.72;;;25.08;52.27
1472;BME280;963;42.644;23.336;2023-07-13T00:47:31;94423.13;;;25.22;51.68
1472;BME280;963;42.644;23.336;2023-07-13T00:49:57;94414.59;;;25.15;51.62
1472;BME280;963;42.644;23.336;2023-07-13T00:52:23;94413.84;;;25.14;51.32
1472;BME280;963;42.644;23.336;2023-07-13T00:54:48;94418.31;;;25.17;51.60
1472;BME280;963;42.644;23.336;2023-07-13T00:57:17;94407.06;;;25.01;51.66
1472;BME280;963;42.644;23.336;2023-07-13T00:59:48;94400.94;;;25.00;51.68
1472;BME280;963;42.644;23.336;2023-07-13T01:02:16;94419.78;;;25.00;52.07
1472;BME280;963;42.644;23.336;2023-07-13T01:04:42;94422.47;;;25.00;52.13
1472;BME280;963;42.644;23.336;2023-07-13T01:07:10;94409.44;;;24.99;52.35
1472;BME280;963;42.644;23.336;2023-07-13T01:09:37;94405.16;;;24.88;52.36
1472;BME280;963;42.644;23.336;2023-07-13T01:12:02;94405.81;;;24.92;52.51
1472;BME280;963;42.644;23.336;2023-07-13T01:14:28;94413.13;;;24.92;53.20
1472;BME280;963;42.644;23.336;2023-07-13T01:16:54;94413.56;;;24.90;53.29
1472;BME280;963;42.644;23.336;2023-07-13T01:19:36;94403.56;;;24.91;53.37
1472;BME280;963;42.644;23.336;2023-07-13T01:22:05;94412.81;;;24.90;53.23
1472;BME280;963;42.644;23.336;2023-07-13T01:24:34;94412.81;;;24.90;53.76
1472;BME280;963;42.644;23.336;2023-07-13T01:27:00;94382.28;;;24.84;53.28
1472;BME280;963;42.644;23.336;2023-07-13T01:29:25;94396.03;;;24.86;53.62
1472;BME280;963;42.644;23.336;2023-07-13T01:31:50;94408.00;;;24.85;54.18
1472;BME280;963;42.644;23.336;2023-07-13T01:34:16;94405.88;;;24.80;54.73
1472;BME280;963;42.644;23.336;2023-07-13T01:36:42;94411.50;;;24.63;54.95
1472;BME280;963;42.644;23.336;2023-07-13T01:39:07;94401.63;;;24.60;55.08
1472;BME280;963;42.644;23.336;2023-07-13T01:41:32;94410.88;;;24.59;54.76
1472;BME280;963;42.644;23.336;2023-07-13T01:43:58;94401.09;;;24.53;55.15
1472;BME280;963;42.644;23.336;2023-07-13T01:46:23;94412.63;;;24.53;55.15
1472;BME280;963;42.644;23.336;2023-07-13T01:48:48;94407.25;;;24.53;55.50
1472;BME280;963;42.644;23.336;2023-07-13T01:51:15;94398.22;;;24.47;55.83
1472;BME280;963;42.644;23.336;2023-07-13T01:53:41;94408.88;;;24.51;56.24
1472;BME280;963;42.644;23.336;2023-07-13T01:56:06;94403.97;;;24.15;56.47
1472;BME280;963;42.644;23.336;2023-07-13T01:58:31;94400.97;;;24.13;56.04
1472;BME280;963;42.644;23.336;2023-07-13T02:00:57;94398.19;;;24.16;55.99
1472;BME280;963;42.644;23.336;2023-07-13T02:03:23;94399.47;;;23.90;56.59
1472;BME280;963;42.644;23.336;2023-07-13T02:05:49;94401.09;;;23.87;56.71
1472;BME280;963;42.644;23.336;2023-07-13T02:08:14;94407.34;;;23.72;56.81
1472;BME280;963;42.644;23.336;2023-07-13T02:10:39;94402.59;;;23.76;56.39
1472;BME280;963;42.644;23.336;2023-07-13T02:13:06;94410.34;;;23.86;56.51
1472;BME280;963;42.644;23.336;2023-07-13T02:15:32;94394.78;;;23.81;56.42
1472;BME280;963;42.644;23.336;2023-07-13T02:17:57;94398.53;;;23.84;55.97
1472;BME280;963;42.644;23.336;2023-07-13T02:20:24;94416.09;;;23.97;56.06
1472;BME280;963;42.644;23.336;2023-07-13T02:22:50;94407.59;;;23.99;55.66
1472;BME280;963;42.644;23.336;2023-07-13T02:25:15;94406.09;;;23.98;56.30
1472;BME280;963;42.644;23.336;2023-07-13T02:27:41;94419.22;;;23.96;56.72
1472;BME280;963;42.644;23.336;2023-07-13T02:30:06;94407.47;;;24.02;56.22
1472;BME280;963;42.644;23.336;2023-07-13T02:32:32;94433.78;;;24.08;56.64
1472;BME280;963;42.644;23.336;2023-07-13T02:34:59;94420.91;;;24.02;57.02
1472;BME280;963;42.644;23.336;2023-07-13T02:37:24;94420.59;;;24.00;57.12
1472;BME280;963;42.644;23.336;2023-07-13T02:39:50;94424.16;;;23.97;56.87
1472;BME280;963;42.644;23.336;2023-07-13T02:42:15;94425.22;;;24.00;56.36
1472;BME280;963;42.644;23.336;2023-07-13T02:44:41;94408.28;;;23.90;56.91
1472;BME280;963;42.644;23.336;2023-07-13T02:47:06;94409.16;;;23.87;57.71
1472;BME280;963;42.644;23.336;2023-07-13T02:49:32;94413.56;;;23.81;57.71
1472;BME280;963;42.644;23.336;2023-07-13T02:51:57;94409.16;;;23.87;57.03
1472;BME280;963;42.644;23.336;2023-07-13T02:54:22;94417.97;;;23.75;57.58
1472;BME280;963;42.644;23.336;2023-07-13T02:56:48;94426.78;;;23.76;57.38
1472;BME280;963;42.644;23.336;2023-07-13T02:59:13;94411.41;;;23.76;57.46
1472;BME280;963;42.644;23.336;2023-07-13T03:01:39;94420.13;;;23.80;57.30
1472;BME280;963;42.644;23.336;2023-07-13T03:04:05;94420.13;;;23.80;57.27
1472;BME280;963;42.644;23.336;2023-07-13T03:06:32;94428.81;;;23.84;57.61
1472;BME280;963;42.644;23.336;2023-07-13T03:08:57;94410.56;;;23.79;57.35
1472;BME280;963;42.644;23.336;2023-07-13T03:11:23;94430.00;;;23.83;57.90
1472;BME280;963;42.644;23.336;2023-07-13T03:13:49;94418.81;;;23.85;57.99
1472;BME280;963;42.644;23.336;2023-07-13T03:16:15;94420.97;;;23.77;58.83
1472;BME280;963;42.644;23.336;2023-07-13T03:18:41;94437.44;;;23.79;58.83
1472;BME280;963;42.644;23.336;2023-07-13T03:21:06;94432.28;;;23.72;59.98
1472;BME280;963;42.644;23.336;2023-07-13T03:23:32;94430.78;;;23.71;60.40
1472;BME280;963;42.644;23.336;2023-07-13T03:26:06;94428.22;;;23.67;60.68
1472;BME280;963;42.644;23.336;2023-07-13T03:28:32;94433.81;;;23.60;60.61
1472;BME280;963;42.644;23.336;2023-07-13T03:31:06;94426.81;;;23.63;60.28
1472;BME280;963;42.644;23.336;2023-07-13T03:33:32;94431.44;;;23.62;59.96
1472;BME280;963;42.644;23.336;2023-07-13T03:35:57;94434.88;;;23.63;60.23
1472;BME280;963;42.644;23.336;2023-07-13T03:38:23;94434.00;;;23.66;60.26
1472;BME280;963;42.644;23.336;2023-07-13T03:40:49;94440.78;;;23.70;59.97
1472;BME280;963;42.644;23.336;2023-07-13T03:43:14;94444.97;;;23.72;60.48
1472;BME280;963;42.644;23.336;2023-07-13T03:45:40;94439.16;;;23.73;59.90
1472;BME280;963;42.644;23.336;2023-07-13T03:48:05;94430.91;;;23.67;60.30
1472;BME280;963;42.644;23.336;2023-07-13T03:50:31;94434.41;;;23.77;59.81
1472;BME280;963;42.644;23.336;2023-07-13T03:52:57;94441.09;;;23.73;59.80
1472;BME280;963;42.644;23.336;2023-07-13T03:55:23;94438.41;;;23.73;60.48
1472;BME280;963;42.644;23.336;2023-07-13T03:57:54;94446.03;;;23.74;60.65
1472;BME280;963;42.644;23.336;2023-07-13T04:00:19;94424.03;;;23.66;60.57
1472;BME280;963;42.644;23.336;2023-07-13T04:02:45;94437.78;;;23.68;61.35
1472;BME280;963;42.644;23.336;2023-07-13T04:05:12;94418.00;;;23.62;60.99
1472;BME280;963;42.644;23.336;2023-07-13T04:07:38;94434.97;;;23.72;61.58
1472;BME280;963;42.644;23.336;2023-07-13T04:10:03;94442.16;;;23.75;62.27
1472;BME280;963;42.644;23.336;2023-07-13T04:12:29;94424.78;;;23.67;62.41
1472;BME280;963;42.644;23.336;2023-07-13T04:14:54;94438.72;;;23.75;62.93
1472;BME280;963;42.644;23.336;2023-07-13T04:17:19;94429.03;;;23.77;64.05
1472;BME280;963;42.644;23.336;2023-07-13T04:19:45;94430.78;;;23.71;63.85
1472;BME280;963;42.644;23.336;2023-07-13T04:22:10;94426.25;;;23.81;64.30
1472;BME280;963;42.644;23.336;2023-07-13T04:24:35;94425.50;;;23.80;64.57
1472;BME280;963;42.644;23.336;2023-07-13T04:27:01;94453.19;;;23.90;64.07
1472;BME280;963;42.644;23.336;2023-07-13T04:29:28;94445.69;;;23.85;64.86
1472;BME280;963;42.644;23.336;2023-07-13T04:31:53;94451.34;;;23.99;64.77
1472;BME280;963;42.644;23.336;2023-07-13T04:34:18;94440.28;;;23.97;64.93
1472;BME280;963;42.644;23.336;2023-07-13T04:36:44;94422.47;;;23.78;64.71
1472;BME280;963;42.644;23.336;2023-07-13T04:39:09;94434.41;;;23.90;64.92
1472;BME280;963;42.644;23.336;2023-07-13T04:41:35;94456.84;;;23.96;64.04
1472;BME280;963;42.644;23.336;2023-07-13T04:44:00;94445.97;;;23.99;64.13
1472;BME280;963;42.644;23.336;2023-07-13T04:46:25;94450.66;;;24.08;64.04
1472;BME280;963;42.644;23.336;2023-07-13T04:48:51;94443.34;;;24.09;64.32
1472;BME280;963;42.644;23.336;2023-07-13T04:51:18;94466.13;;;24.17;64.30
1472;BME280;963;42.644;23.336;2023-07-13T04:53:44;94447.09;;;24.11;64.10
1472;BME280;963;42.644;23.336;2023-07-13T04:56:09;94457.72;;;24.15;64.56
1472;BME280;963;42.644;23.336;2023-07-13T04:58:35;94470.06;;;24.25;64.45
1472;BME280;963;42.644;23.336;2023-07-13T05:01:02;94477.03;;;24.35;64.18
1472;BME280;963;42.644;23.336;2023-07-13T05:03:28;94463.91;;;24.37;63.77
1472;BME280;963;42.644;23.336;2023-07-13T05:05:59;94475.03;;;24.48;63.59
1472;BME280;963;42.644;23.336;2023-07-13T05:08:25;94467.59;;;24.52;63.29
1472;BME280;963;42.644;23.336;2023-07-13T05:10:51;94464.50;;;24.54;63.54
1472;BME280;963;42.644;23.336;2023-07-13T05:13:17;94478.69;;;24.54;63.17
1472;BME280;963;42.644;23.336;2023-07-13T05:15:42;94472.13;;;24.55;62.83
1472;BME280;963;42.644;23.336;2023-07-13T05:18:08;94481.38;;;24.54;63.03
1472;BME280;963;42.644;23.336;2023-07-13T05:20:33;94486.25;;;24.69;62.27
1472;BME280;963;42.644;23.336;2023-07-13T05:22:59;94488.56;;;24.79;61.87
1472;BME280;963;42.644;23.336;2023-07-13T05:25:24;94481.53;;;24.82;61.65
1472;BME280;963;42.644;23.336;2023-07-13T05:27:50;94502.81;;;24.89;61.77
1472;BME280;963;42.644;23.336;2023-07-13T05:30:15;94487.31;;;24.93;61.61
1472;BME280;963;42.644;23.336;2023-07-13T05:32:41;94494.50;;;24.96;61.94
1472;BME280;963;42.644;23.336;2023-07-13T05:35:07;94495.69;;;24.95;61.12
1472;BME280;963;42.644;23.336;2023-07-13T05:37:32;94487.06;;;25.00;61.03
1472;BME280;963;42.644;23.336;2023-07-13T05:39:57;94499.50;;;25.07;60.71
1472;BME280;963;42.644;23.336;2023-07-13T05:42:23;94502.06;;;25.10;60.20
1472;BME280;963;42.644;23.336;2023-07-13T05:44:49;94468.25;;;25.09;60.51
1472;BME280;963;42.644;23.336;2023-07-13T05:47:14;94497.91;;;25.18;60.59
1472;BME280;963;42.644;23.336;2023-07-13T05:49:40;94478.91;;;24.91;61.58
1472;BME280;963;42.644;23.336;2023-07-13T05:52:06;94505.25;;;24.96;61.49
1472;BME280;963;42.644;23.336;2023-07-13T05:54:31;94488.94;;;25.21;61.22
1472;BME280;963;42.644;23.336;2023-07-13T05:56:57;94498.00;;;25.37;60.62
1472;BME280;963;42.644;23.336;2023-07-13T05:59:22;94485.75;;;25.45;60.14
1472;BME280;963;42.644;23.336;2023-07-13T06:01:48;94480.53;;;25.50;60.01
1472;BME280;963;42.644;23.336;2023-07-13T06:04:14;94486.09;;;25.56;59.11
1472;BME280;963;42.644;23.336;2023-07-13T06:06:39;94485.47;;;25.43;59.71
1472;BME280;963;42.644;23.336;2023-07-13T06:09:05;94476.97;;;25.22;59.82
1472;BME280;963;42.644;23.336;2023-07-13T06:11:30;94474.97;;;25.45;59.80
1472;BME280;963;42.644;23.336;2023-07-13T06:13:56;94470.84;;;25.62;59.62
1472;BME280;963;42.644;23.336;2023-07-13T06:16:22;94468.44;;;25.64;59.63
1472;BME280;963;42.644;23.336;2023-07-13T06:18:47;94485.88;;;25.81;59.55
1472;BME280;963;42.644;23.336;2023-07-13T06:21:18;94468.66;;;25.79;59.09
1472;BME280;963;42.644;23.336;2023-07-13T06:23:45;94489.78;;;25.90;58.91
1472;BME280;963;42.644;23.336;2023-07-13T06:26:13;94488.50;;;26.03;58.13
1472;BME280;963;42.644;23.336;2023-07-13T06:28:39;94485.94;;;26.09;57.83
1472;BME280;963;42.644;23.336;2023-07-13T06:31:06;94488.94;;;26.02;57.97
1472;BME280;963;42.644;23.336;2023-07-13T06:33:32;94484.28;;;26.11;57.32
1472;BME280;963;42.644;23.336;2023-07-13T06:35:58;94480.84;;;26.20;56.36
1472;BME280;963;42.644;23.336;2023-07-13T06:38:23;94482.50;;;26.27;55.48
1472;BME280;963;42.644;23.336;2023-07-13T06:40:48;94487.00;;;26.39;55.84
1472;BME280;963;42.644;23.336;2023-07-13T06:43:14;94475.47;;;26.38;55.75
1472;BME280;963;42.644;23.336;2023-07-13T06:45:45;94485.22;;;26.45;55.39
1472;BME280;963;42.644;23.336;2023-07-13T06:48:13;94484.47;;;26.44;55.12
1472;BME280;963;42.644;23.336;2023-07-13T06:50:39;94479.81;;;26.54;54.58
1472;BME280;963;42.644;23.336;2023-07-13T06:53:04;94466.50;;;26.51;53.83
1472;BME280;963;42.644;23.336;2023-07-13T06:55:30;94462.28;;;26.59;53.14
1472;BME280;963;42.644;23.336;2023-07-13T06:57:55;94477.72;;;26.76;53.05
1472;BME280;963;42.644;23.336;2023-07-13T07:00:21;94480.56;;;26.64;52.73
1472;BME280;963;42.644;23.336;2023-07-13T07:02:46;94469.59;;;26.67;53.41
1472;BME280;963;42.644;23.336;2023-07-13T07:05:12;94468.66;;;26.89;52.94
1472;BME280;963;42.644;23.336;2023-07-13T07:07:37;94480.81;;;26.93;53.21
1472;BME280;963;42.644;23.336;2023-07-13T07:10:03;94485.31;;;26.87;52.26
1472;BME280;963;42.644;23.336;2023-07-13T07:12:28;94486.38;;;26.90;52.13
1472;BME280;963;42.644;23.336;2023-07-13T07:14:54;94480.19;;;27.07;51.80
1472;BME280;963;42.644;23.336;2023-07-13T07:17:19;94478.97;;;27.18;51.94
1472;BME280;963;42.644;23.336;2023-07-13T07:19:45;94471.00;;;27.23;51.88
1472;BME280;963;42.644;23.336;2023-07-13T07:22:10;94481.94;;;27.29;51.82
1472;BME280;963;42.644;23.336;2023-07-13T07:24:36;94479.06;;;27.32;52.10
1472;BME280;963;42.644;23.336;2023-07-13T07:27:01;94476.41;;;27.23;51.13
1472;BME280;963;42.644;23.336;2023-07-13T07:29:27;94472.00;;;27.35;51.66
1472;BME280;963;42.644;23.336;2023-07-13T07:31:53;94459.75;;;27.25;51.48
1472;BME280;963;42.644;23.336;2023-07-13T07:34:19;94482.72;;;27.20;52.21
1472;BME280;963;42.644;23.336;2023-07-13T07:36:44;94470.34;;;27.37;51.67
1472;BME280;963;42.644;23.336;2023-07-13T07:39:10;94470.16;;;27.41;51.88
1472;BME280;963;42.644;23.336;2023-07-13T07:41:35;94466.25;;;27.42;52.44
1472;BME280;963;42.644;23.336;2023-07-13T07:44:00;94442.81;;;27.48;51.87
1472;BME280;963;42.644;23.336;2023-07-13T07:46:26;94447.59;;;27.53;51.83
1472;BME280;963;42.644;23.336;2023-07-13T07:48:51;94455.53;;;27.57;52.89
1472;BME280;963;42.644;23.336;2023-07-13T07:51:17;94448.47;;;27.59;51.06
1472;BME280;963;42.644;23.336;2023-07-13T07:53:42;94442.16;;;27.62;51.17
1472;BME280;963;42.644;23.336;2023-07-13T07:56:08;94444.75;;;27.81;51.11
1472;BME280;963;42.644;23.336;2023-07-13T07:58:35;94445.47;;;27.90;51.62
1472;BME280;963;42.644;23.336;2023-07-13T08:01:06;94459.38;;;27.98;51.47
1472;BME280;963;42.644;23.336;2023-07-13T08:03:32;94446.69;;;28.04;51.54
1472;BME280;963;42.644;23.336;2023-07-13T08:05:57;94435.53;;;28.11;50.73
1472;BME280;963;42.644;23.336;2023-07-13T08:08:24;94432.25;;;28.07;50.62
1472;BME280;963;42.644;23.336;2023-07-13T08:10:49;94443.53;;;28.06;50.76
1472;BME280;963;42.644;23.336;2023-07-13T08:13:15;94427.22;;;28.15;50.69
1472;BME280;963;42.644;23.336;2023-07-13T08:15:40;94422.63;;;28.30;50.94
1472;BME280;963;42.644;23.336;2023-07-13T08:18:06;94422.09;;;28.41;49.66
1472;BME280;963;42.644;23.336;2023-07-13T08:20:33;94420.22;;;28.47;49.49
1472;BME280;963;42.644;23.336;2023-07-13T08:22:58;94415.38;;;28.51;49.61
1472;BME280;963;42.644;23.336;2023-07-13T08:25:24;94427.97;;;28.54;49.81
1472;BME280;963;42.644;23.336;2023-07-13T08:27:49;94414.91;;;28.67;50.94
1472;BME280;963;42.644;23.336;2023-07-13T08:30:15;94417.22;;;28.45;50.93
1472;BME280;963;42.644;23.336;2023-07-13T08:32:40;94417.63;;;28.67;50.85
1472;BME280;963;42.644;23.336;2023-07-13T08:35:06;94405.66;;;28.59;50.19
1472;BME280;963;42.644;23.336;2023-07-13T08:37:31;94411.16;;;28.79;49.92
1472;BME280;963;42.644;23.336;2023-07-13T08:39:57;94413.81;;;28.88;49.48
1472;BME280;963;42.644;23.336;2023-07-13T08:45:02;94408.00;;;28.81;48.59
1472;BME280;963;42.644;23.336;2023-07-13T08:47:32;94407.06;;;28.99;48.52
1472;BME280;963;42.644;23.336;2023-07-13T08:49:58;94408.75;;;29.11;47.97
1472;BME280;963;42.644;23.336;2023-07-13T08:52:31;94406.31;;;29.13;48.20
1472;BME280;963;42.644;23.336;2023-07-13T08:54:58;94408.78;;;29.31;48.62
1472;BME280;963;42.644;23.336;2023-07-13T08:57:33;94410.00;;;29.45;48.97
1472;BME280;963;42.644;23.336;2023-07-13T08:59:59;94413.72;;;29.47;47.63
1472;BME280;963;42.644;23.336;2023-07-13T09:02:57;94409.88;;;29.54;47.97
1472;BME280;963;42.644;23.336;2023-07-13T09:05:39;94427.56;;;29.70;46.91
1472;BME280;963;42.644;23.336;2023-07-13T09:11:27;94442.63;;;29.91;45.65
1472;BME280;963;42.644;23.336;2023-07-13T09:16:29;94440.81;;;30.03;46.64
1472;BME280;963;42.644;23.336;2023-07-13T09:19:00;94444.44;;;30.14;45.95
1472;BME280;963;42.644;23.336;2023-07-13T09:21:39;94442.53;;;30.21;46.43
1472;BME280;963;42.644;23.336;2023-07-13T09:24:38;94430.50;;;30.27;45.89
1472;BME280;963;42.644;23.336;2023-07-13T09:27:15;94437.03;;;30.41;44.74
1472;BME280;963;42.644;23.336;2023-07-13T09:29:48;94454.13;;;30.47;44.80
1472;BME280;963;42.644;23.336;2023-07-13T09:32:18;94438.19;;;30.55;44.64
1472;BME280;963;42.644;23.336;2023-07-13T09:34:53;94436.75;;;30.59;43.82
1472;BME280;963;42.644;23.336;2023-07-13T09:37:21;94432.13;;;30.65;43.93
1472;BME280;963;42.644;23.336;2023-07-13T09:39:49;94437.44;;;30.54;43.24
1472;BME280;963;42.644;23.336;2023-07-13T09:42:19;94430.44;;;30.68;43.32
1472;BME280;963;42.644;23.336;2023-07-13T09:47:30;94425.63;;;30.83;44.17
1472;BME280;963;42.644;23.336;2023-07-13T09:50:04;94424.50;;;30.95;43.52
1472;BME280;963;42.644;23.336;2023-07-13T09:52:43;94402.50;;;30.93;44.32
1472;BME280;963;42.644;23.336;2023-07-13T09:57:50;94406.00;;;30.99;43.24
1472;BME280;963;42.644;23.336;2023-07-13T10:00:28;94389.72;;;31.05;42.84
1472;BME280;963;42.644;23.336;2023-07-13T10:03:03;94384.66;;;31.18;42.36
1472;BME280;963;42.644;23.336;2023-07-13T10:05:37;94389.72;;;31.36;43.37
1472;BME280;963;42.644;23.336;2023-07-13T10:08:03;94383.56;;;31.41;42.98
1472;BME280;963;42.644;23.336;2023-07-13T10:10:32;94377.88;;;31.39;42.84
1472;BME280;963;42.644;23.336;2023-07-13T10:12:58;94387.25;;;31.38;43.52
1472;BME280;963;42.644;23.336;2023-07-13T10:15:25;94358.16;;;31.56;44.09
1472;BME280;963;42.644;23.336;2023-07-13T10:17:51;94370.16;;;31.75;43.09
1472;BME280;963;42.644;23.336;2023-07-13T10:20:18;94385.78;;;31.91;41.98
1472;BME280;963;42.644;23.336;2023-07-13T10:22:53;94369.50;;;32.02;42.15
1472;BME280;963;42.644;23.336;2023-07-13T10:25:41;94376.22;;;32.24;42.05
1472;BME280;963;42.644;23.336;2023-07-13T10:28:30;94373.56;;;32.35;40.56
1472;BME280;963;42.644;23.336;2023-07-13T10:30:59;94362.94;;;32.48;38.13
1472;BME280;963;42.644;23.336;2023-07-13T10:33:26;94358.47;;;32.56;38.22
1472;BME280;963;42.644;23.336;2023-07-13T10:35:57;94360.69;;;32.69;39.03
1472;BME280;963;42.644;23.336;2023-07-13T10:38:27;94350.81;;;32.77;37.55
1472;BME280;963;42.644;23.336;2023-07-13T10:41:03;94338.94;;;32.91;38.39
1472;BME280;963;42.644;23.336;2023-07-13T10:43:41;94336.69;;;33.01;37.56
1472;BME280;963;42.644;23.336;2023-07-13T10:46:11;94343.59;;;33.24;37.22
1472;BME280;963;42.644;23.336;2023-07-13T10:48:39;94338.63;;;33.29;35.94
1472;BME280;963;42.644;23.336;2023-07-13T10:51:06;94339.38;;;33.35;33.64
1472;BME280;963;42.644;23.336;2023-07-13T10:53:37;94338.38;;;33.38;33.94
1472;BME280;963;42.644;23.336;2023-07-13T10:58:43;94344.03;;;33.51;35.93
1472;BME280;963;42.644;23.336;2023-07-13T11:01:11;94326.25;;;33.22;38.45
1472;BME280;963;42.644;23.336;2023-07-13T11:18:52;94310.13;;;33.93;35.75
1472;BME280;963;42.644;23.336;2023-07-13T11:21:23;94294.94;;;34.03;35.20
1472;BME280;963;42.644;23.336;2023-07-13T11:24:16;94300.03;;;34.18;35.88
1472;BME280;963;42.644;23.336;2023-07-13T11:26:51;94296.56;;;34.23;35.61
1472;BME280;963;42.644;23.336;2023-07-13T11:29:32;94273.91;;;34.28;33.01
1472;BME280;963;42.644;23.336;2023-07-13T11:32:01;94280.63;;;34.27;34.89
1472;BME280;963;42.644;23.336;2023-07-13T11:34:27;94278.06;;;34.40;33.97
1472;BME280;963;42.644;23.336;2023-07-13T11:36:56;94285.63;;;34.59;34.20
1472;BME280;963;42.644;23.336;2023-07-13T11:41:57;94277.97;;;35.06;31.81
1472;BME280;963;42.644;23.336;2023-07-13T11:44:26;94261.66;;;35.19;31.59
1472;BME280;963;42.644;23.336;2023-07-13T11:46:54;94257.06;;;35.33;33.04
1472;BME280;963;42.644;23.336;2023-07-13T11:49:22;94267.88;;;35.44;32.38
1472;BME280;963;42.644;23.336;2023-07-13T11:51:49;94232.53;;;35.46;32.42
1472;BME280;963;42.644;23.336;2023-07-13T11:54:31;94256.72;;;35.42;32.57
1472;BME280;963;42.644;23.336;2023-07-13T11:59:43;94260.31;;;35.07;33.22
1472;BME280;963;42.644;23.336;2023-07-13T12:02:22;94270.81;;;34.73;34.06
1472;BME280;963;42.644;23.336;2023-07-13T12:04:51;94249.75;;;34.68;33.43
1472;BME280;963;42.644;23.336;2023-07-13T12:07:18;94258.53;;;34.61;33.94
1472;BME280;963;42.644;23.336;2023-07-13T12:09:44;94242.81;;;34.67;33.43
1472;BME280;963;42.644;23.336;2023-07-13T12:12:16;94247.03;;;34.68;33.76
1472;BME280;963;42.644;23.336;2023-07-13T12:14:42;94253.94;;;34.99;33.22
1472;BME280;963;42.644;23.336;2023-07-13T12:17:21;94259.50;;;35.12;33.14
1472;BME280;963;42.644;23.336;2023-07-13T12:19:50;94248.38;;;35.29;33.25
1472;BME280;963;42.644;23.336;2023-07-13T12:22:18;94242.50;;;35.44;32.68
1472;BME280;963;42.644;23.336;2023-07-13T12:24:45;94241.03;;;35.43;32.91
1472;BME280;963;42.644;23.336;2023-07-13T12:27:26;94215.94;;;35.57;33.01
1472;BME280;963;42.644;23.336;2023-07-13T12:30:05;94226.53;;;35.85;32.20
1472;BME280;963;42.644;23.336;2023-07-13T12:32:31;94203.94;;;35.98;31.85
1472;BME280;963;42.644;23.336;2023-07-13T12:35:14;94210.44;;;36.14;31.86
1472;BME280;963;42.644;23.336;2023-07-13T12:37:44;94218.25;;;35.91;30.64
1472;BME280;963;42.644;23.336;2023-07-13T12:40:19;94207.91;;;35.84;30.67
1472;BME280;963;42.644;23.336;2023-07-13T12:42:49;94204.75;;;35.93;31.54
1472;BME280;963;42.644;23.336;2023-07-13T12:45:22;94209.81;;;35.89;31.89
1472;BME280;963;42.644;23.336;2023-07-13T12:47:52;94209.94;;;35.78;31.46
1472;BME280;963;42.644;23.336;2023-07-13T12:50:20;94203.00;;;35.77;32.40
1472;BME280;963;42.644;23.336;2023-07-13T12:52:56;94198.25;;;35.96;32.39
1472;BME280;963;42.644;23.336;2023-07-13T12:55:25;94210.84;;;35.86;32.94
1472;BME280;963;42.644;23.336;2023-07-13T12:57:57;94200.75;;;35.94;32.04
1472;BME280;963;42.644;23.336;2023-07-13T13:00:53;94203.50;;;35.94;32.21
1472;BME280;963;42.644;23.336;2023-07-13T13:03:34;94193.81;;;35.93;31.95
1472;BME280;963;42.644;23.336;2023-07-13T13:06:04;94192.47;;;35.99;32.47
1472;BME280;963;42.644;23.336;2023-07-13T13:08:32;94186.94;;;36.18;32.07
1472;BME280;963;42.644;23.336;2023-07-13T13:10:57;94193.72;;;36.30;31.87
1472;BME280;963;42.644;23.336;2023-07-13T13:13:23;94176.97;;;36.34;32.17
1472;BME280;963;42.644;23.336;2023-07-13T13:15:49;94178.13;;;36.39;31.97
1472;BME280;963;42.644;23.336;2023-07-13T13:18:17;94181.44;;;36.63;32.20
1472;BME280;963;42.644;23.336;2023-07-13T13:20:43;94177.75;;;36.48;31.05
1472;BME280;963;42.644;23.336;2023-07-13T13:23:16;94181.03;;;36.59;31.12
1472;BME280;963;42.644;23.336;2023-07-13T13:25:44;94176.34;;;36.41;31.08
1472;BME280;963;42.644;23.336;2023-07-13T13:28:19;94175.44;;;36.52;30.51
1472;BME280;963;42.644;23.336;2023-07-13T13:30:45;94170.97;;;36.36;30.94
1472;BME280;963;42.644;23.336;2023-07-13T13:33:14;94178.59;;;36.56;31.32
1472;BME280;963;42.644;23.336;2023-07-13T13:35:41;94181.94;;;36.36;31.17
1472;BME280;963;42.644;23.336;2023-07-13T13:38:15;94168.44;;;36.38;30.88
1472;BME280;963;42.644;23.336;2023-07-13T13:40:45;94167.63;;;36.43;31.63
1472;BME280;963;42.644;23.336;2023-07-13T13:43:26;94175.31;;;36.71;31.60
1472;BME280;963;42.644;23.336;2023-07-13T13:45:53;94162.56;;;36.47;31.13
1472;BME280;963;42.644;23.336;2023-07-13T13:48:29;94154.03;;;36.50;31.40
1472;BME280;963;42.644;23.336;2023-07-13T13:50:57;94166.94;;;36.82;31.14
1472;BME280;963;42.644;23.336;2023-07-13T13:53:23;94166.38;;;36.97;31.23
1472;BME280;963;42.644;23.336;2023-07-13T13:55:51;94165.84;;;36.72;30.73
1472;BME280;963;42.644;23.336;2023-07-13T13:58:18;94171.25;;;36.90;30.55
1472;BME280;963;42.644;23.336;2023-07-13T14:00:44;94158.06;;;36.89;30.11
1472;BME280;963;42.644;23.336;2023-07-13T14:03:20;94152.91;;;36.85;30.40
1472;BME280;963;42.644;23.336;2023-07-13T14:05:48;94157.00;;;36.79;30.01